首页
METAR-TAF:

METAR-TAF

机场 :

安吉利斯港, 华盛顿, 美国

纬度: 48-07-20N, 经度: 123-30-19W, 海拔: 87米

当前天气观测

该预报发布于22分钟前的16:53 UTC
风速12节,风向西
温度 6°C
湿度 70%
气压 1022 hPa
能見度: 16.1公里
天空无云

METAR: KCLM 121653Z AUTO 26012KT 10SM CLR 06/01 A3018 RMK AO2 SLP223 T00560011

时间: 09:15 (17:15 UTC)

预报

该预报发布于5小时和44分钟前的11:31 UTC
预报有效从12日的 12点(UTC)到 13日的 12点(UTC)
风速12节,风向西,有时为20节阵风
能見度: 10公里
散云层高于4000英尺
多云层高于7000英尺
从 12日的 1500点(UTC)
风速11节,风向西
能見度: 10公里
多云层高于7000英尺
多云层高于20000英尺
从 12日的 2200点(UTC)
风速8节,风向西转西北
能見度: 10公里
散云层高于3000英尺
多云层高于5000英尺
小雨
从 13日的 0300点(UTC)
风速5节,风向多变
能見度: 9.7公里
阴天层高于2500英尺
小雨, 轻雾

TAF: KCLM 121131Z 1212/1312 26012G20KT P6SM SCT040 BKN070 FM121500 26011KT P6SM BKN070 BKN200 FM122200 30008KT P6SM -RA SCT030 BKN050 FM130300 VRB05KT 6SM -RA BR OVC025

超过4000个机场的气象观测和天气预报(METAR&TAF报告)。

可查询的气象台以黄色和红色小点在地图上表示。

将鼠标移到小点上方,可查看气象台名称。

然后点击查看天气观测和预报。

如需切换地图:点击带黑十字的绿色按钮放大地图;点击带横线的绿色按钮缩小地图;或者点击绿色箭头查看邻近地区的地图。


METAR-TAF: